Aktualne dane pomiarowe

Uwaga, wersja testowa! Automatyczne pobieranie danych za pomocą narzędzi lub skryptów to umożliwiających jest zabronione.

Dane meteo z obszaru Polski uzyskane na podstawie depesz SYNOP pobieranych co godzinę z NWS. Najedź myszką na symbol przedstawiony w tabeli, aby uzyskać informacje co do jego znaczenia. Prosimy pamiętać, że to testowa wersja strony, która jeszcze nie jest ukończona. Stworzono również jest krótki FAQ dotyczący korzystania z tej podstrony Anomalie temperatury w chwili obecnej odniesione są do okresu referencyjnego 1951-2016. Okres ten będzie później zmieniony na 1981-2010. Kliknij ikonę aby pobrać plik CSV. Kliknij ikonę aby wygenerować mapę synoptyczną dla danego terminu.

Wybierz Datę:    

        

Chojnice (12235)

Dane terminowe dla wybranej stacji. Kliknij datę, aby otrzymać dane z tego terminu dla wszystkich stacji.

TemperaturaZachmurzenieWiatrCiśnienieOpadyPogoda
 Data t td wb tx tn tg rh  Nt Nl Cl Cm Ch ws wd g1 g2 wx mslp ppp ch 24h 12h t ww ww w1 w2  
2019-07-20 23:00:00 18.8 11.5 14.3--- 6340.0wx-wx2wx--21014.6 994.3 -0.4---------
2019-07-20 22:00:00 19.9 11.5 14.7--- 5840.0wx-wx2wx--21014.8 994.6 0.5---------
2019-07-20 21:00:00 20.7 11.7 15.2--- 5640.0wx-wxwx3wx---1014.6 994.5 0.6---------
2019-07-20 20:00:00 21.9 12.5 16.1--- 5535.0wx-wxwx3wx--31014.7 994.7 0.8---------
2019-07-20 19:00:00 23.5 12.9 16.9--- 5130.0wx-wxwx2wx--21014.0 994.1 0.0---------
2019-07-20 18:00:00 25.1 12.8 17.5 28.0 18.9- 4630.0wxwxwxwxwx3wx--31013.7 993.9 -0.4- 0.012------
2019-07-20 17:00:00 26.9 11.5 17.6--- 3840.0wxwxwxwxwx3wx--31013.6 993.9 -0.7---------
2019-07-20 16:00:00 27.7 11.8 18.1--- 3730.0wxwxwxwxwx3wx--31013.7 994.1 -0.7---------
2019-07-20 15:00:00 27.9 10.7 17.7--- 3440.0wxwxwxwxwx2wx---1013.9 994.3 -0.7---------
2019-07-20 14:00:00 26.5 12.3 17.8--- 4135.0wxwxwxwxwx1wx--11014.3 994.6 -0.5---------
2019-07-20 13:00:00 27.0 11.6 17.7--- 3835.0wxwxwxwx2wx--21014.5 994.8 -0.4---------
2019-07-20 12:00:00 27.1 11.2 17.6--- 3726.0wxwxwxwx2wx--21014.7 995.0 -0.4- 0.06------
2019-07-20 11:00:00 26.6 12.0 17.7--- 4035.0wxwxwxwx2wx--21014.8 995.1 -0.1---------
2019-07-20 10:00:00 25.7 12.3 17.5--- 4329.0wxwxwxwx2wx--21015.0 995.2 0.0---------
2019-07-20 09:00:00 24.3 12.4 17.0--- 4727.0wxwxwxwx2wx--21015.3 995.4 0.3---------
2019-07-20 08:00:00 22.7 13.8 17.1--- 5729.0wx-wx2wx--21015.2 995.2 0.3---------
2019-07-20 07:00:00 20.8 14.3 16.6--- 6627.0wx-wx1wx--11015.3 995.2 0.7---------
2019-07-20 06:00:00 18.9 14.3 15.8 23.9 12.8 11 7529.0wx-wx1wx--11015.4 995.1 0.9- 0.012----- 12.9
2019-07-20 05:00:00 16.2 13.4 14.3--- 8428.0wx-wx1wx---1015.3 994.9 0.8---------
2019-07-20 04:00:00 13.9 12.4 12.8--- 9119.0wx-wxwx1wx--11015.1 994.5 0.5---------
2019-07-20 03:00:00 12.8 11.6 11.9--- 9219.0wx-wxwx1wx--11014.9 994.2 0.3---wx---
2019-07-20 02:00:00 13.3 11.8 12.2--- 9117.0wx-wx1wx--11014.7 994.1 0.2---------
2019-07-20 01:00:00 14.6 12.6 13.2--- 8830.0wx-wx1wx--11014.5 994.0 0.2---------
2019-07-20 00:00:00 15.5 12.3 13.4--- 8135.0wx-wx1wx--11014.4 993.9 0.4- 0.06------
2019-07-19 23:00:00 16.6 13.6 14.5--- 8235.0wx-wx1wx---1014.3 993.9 0.7---------
2019-07-19 22:00:00 17.6 12.6 14.3--- 7340.0wx-wx2wx--21014.1 993.8 1.0---------
2019-07-19 21:00:00 18.4 12.9 14.8--- 7030.0wx-wx2wx--21013.8 993.5 1.2---------
2019-07-19 20:00:00 21.0 12.2 15.5--- 5729.0wx-wx2wx--21013.3 993.2 0.9---------
2019-07-19 19:00:00 22.9 10.8 15.7--- 4635.0wxwxwxwx1wx--11012.7 992.8 0.6---------
2019-07-19 18:00:00 23.9 9.9 15.7 26.3 17.5- 4145.0wx-wx2wx--21012.2 992.3 0.0- 0.012------
2019-07-19 17:00:00 25.1 9.5 16.0--- 3740.0wxwxwxwx3wx--31012.1 992.3 -0.1---------
2019-07-19 16:00:00 25.3 9.2 16.0--- 3640.0wxwxwxwxwx2wx--21012.0 992.2 -0.4---------
2019-07-19 15:00:00 26.3 8.4 16.0--- 3230.0wxwxwxwxwx2wx--21012.0 992.3 -0.4---------
2019-07-19 14:00:00 25.7 8.7 15.9--- 3440.0wxwxwxwxwx2wx--21012.1 992.4 -0.4---------
2019-07-19 13:00:00 25.7 8.7 15.9--- 3430.0wxwxwxwx4wx--41012.3 992.6 -0.3---------
2019-07-19 12:00:00 25.8 8.8 16.0--- 3430.0wxwxwxwxwx3wx--31012.4 992.7 -0.4- 0.06------
2019-07-19 11:00:00 25.3 8.4 15.6--- 3430.0wxwxwxwxwx3wx--31012.6 992.8 -0.3---------
2019-07-19 10:00:00 24.1 8.6 15.2--- 3730.0wxwxwxwxwx3wx--31012.8 992.9 -0.1---------
2019-07-19 09:00:00 23.1 9.6 15.2--- 4230.0wxwxwxwx2wx--21013.0 993.1 0.1---------
2019-07-19 08:00:00 21.9 11.4 15.5--- 5130.0wx-wx1wx--11013.1 993.1 0.1---------
2019-07-19 07:00:00 20.2 10.7 14.5--- 5426.0wx-wx1wx--11013.1 993.0 0.0---------
2019-07-19 06:00:00 17.5 10.7 13.3 21.4 11.4 9 6430.0wx-wx2wx--21013.3 993.0 -0.1--12----- 14.8
2019-07-19 05:00:00 15.2 11.1 12.5--- 7735.0wx-wx2wx--21013.5 993.0 -0.4----22----
2019-07-19 04:00:00 12.3 11.5 11.7--- 9510.0wx-wx1wx--11013.7 993.0 -0.7----22----
2019-07-19 03:00:00 11.8 11.3 11.4--- 9710.0wxwxwx1wx--11013.8 993.1 -0.8---------
2019-07-19 02:00:00 11.9 11.1 11.3--- 9510.0wxwxwx1wx--11014.1 993.4 -0.5---------
2019-07-19 01:00:00 12.5 11.5 11.8--- 9415.0wxwxwx1wx--11014.4 993.7 -0.1---------
2019-07-19 00:00:00 12.1 11.3 11.5--- 9515.0wxwxwx1wx--11014.6 993.9 0.1- 0.06------
1.5 ms

 

Print Friendly, PDF & Email